Time;durP1;ratioP1;P1;durP2;ratioP2;P2;SDS_P1;SDS_P2;PMS_P1;PMS_P2;Temp;Humidity;BMP_temperature;BMP_pressure;BME280_temperature;BME280_humidity;BME280_pressure;Samples;Min_cycle;Max_cycle;Signal;HPM_P1;HPM_P2
2022/09/26 00:01:42;;;;;;;9.07;5.20;;;;;;;9.27;100.00;98602.47;5155306;27;20285;-81
2022/09/26 00:04:17;;;;;;;5.43;4.23;;;;;;;9.13;100.00;98609.50;5154020;27;20208;-81
2022/09/26 00:06:55;;;;;;;5.43;4.50;;;;;;;9.09;100.00;98604.56;5152269;27;20699;-81
2022/09/26 00:09:26;;;;;;;5.57;4.80;;;;;;;9.07;100.00;98602.03;5157954;27;20190;-81
2022/09/26 00:11:55;;;;;;;4.93;3.77;;;;;;;8.95;100.00;98600.16;5146881;27;20262;-81
2022/09/26 00:14:25;;;;;;;4.50;4.10;;;;;;;8.97;100.00;98595.63;5154893;27;20232;-82
2022/09/26 00:16:54;;;;;;;7.33;4.40;;;;;;;8.80;100.00;98588.84;5154509;27;20213;-81
2022/09/26 00:19:23;;;;;;;6.43;4.00;;;;;;;8.77;100.00;98582.91;5148578;27;20644;-81
2022/09/26 00:21:54;;;;;;;5.33;4.47;;;;;;;8.83;100.00;98578.06;5154909;27;20229;-81
2022/09/26 00:24:22;;;;;;;11.43;4.97;;;;;;;8.75;100.00;98580.34;5154833;27;20228;-81
2022/09/26 00:26:51;;;;;;;23.53;5.43;;;;;;;8.62;100.00;98586.56;5150032;27;20218;-82
2022/09/26 00:29:19;;;;;;;18.77;5.27;;;;;;;8.66;100.00;98588.03;5157516;27;20189;-81
2022/09/26 00:31:48;;;;;;;82.73;8.20;;;;;;;8.55;100.00;98592.22;5149998;27;20198;-81
2022/09/26 00:34:18;;;;;;;119.60;9.57;;;;;;;8.52;100.00;98588.94;5156321;27;20221;-81
2022/09/26 00:36:47;;;;;;;114.70;8.20;;;;;;;8.29;100.00;98583.31;5152764;27;20320;-82
2022/09/26 00:39:17;;;;;;;74.53;7.67;;;;;;;8.41;100.00;98587.00;5151790;27;20233;-81
2022/09/26 00:41:46;;;;;;;81.67;9.17;;;;;;;8.41;100.00;98586.16;5149609;27;20221;-82
2022/09/26 00:44:42;;;;;;;50.93;6.83;;;;;;;8.43;100.00;98581.63;5155498;27;20217;-82
2022/09/26 00:47:27;;;;;;;110.00;8.63;;;;;;;8.23;100.00;98582.88;5156130;27;20191;-82
2022/09/26 00:50:00;;;;;;;112.93;10.37;;;;;;;8.13;100.00;98589.69;5146305;27;20221;-82
2022/09/26 00:52:33;;;;;;;50.03;6.03;;;;;;;8.21;100.00;98592.69;5150521;27;20201;-81
2022/09/26 00:55:05;;;;;;;68.70;7.27;;;;;;;8.12;100.00;98586.19;5148943;27;20185;-82
2022/09/26 00:57:40;;;;;;;47.03;6.20;;;;;;;8.12;100.00;98577.44;5099035;27;20441;-81
2022/09/26 01:00:13;;;;;;;30.63;6.27;;;;;;;8.17;100.00;98573.53;5150247;27;20235;-82
2022/09/26 01:02:44;;;;;;;12.40;5.43;;;;;;;8.14;100.00;98560.56;5149990;27;20197;-81
2022/09/26 01:05:16;;;;;;;22.53;5.20;;;;;;;8.15;100.00;98561.41;5148497;27;20283;-81
2022/09/26 01:07:45;;;;;;;6.90;4.73;;;;;;;8.32;100.00;98564.66;5152490;27;20228;-81
2022/09/26 01:10:16;;;;;;;8.27;4.83;;;;;;;8.28;100.00;98562.31;5153784;27;20194;-80
2022/09/26 01:12:44;;;;;;;17.40;5.50;;;;;;;8.19;100.00;98553.19;5153795;27;20190;-81
2022/09/26 01:15:13;;;;;;;20.63;5.80;;;;;;;8.22;100.00;98552.16;5150620;27;20197;-81
2022/09/26 01:17:44;;;;;;;10.37;4.37;;;;;;;8.22;100.00;98541.63;5148799;27;20214;-81
2022/09/26 01:20:25;;;;;;;13.30;3.93;;;;;;;8.09;100.00;98543.31;5151562;27;20197;-81
2022/09/26 01:23:41;;;;;;;14.13;4.07;;;;;;;8.08;100.00;98541.63;5151971;27;20201;-81
2022/09/26 01:26:49;;;;;;;8.40;3.80;;;;;;;8.22;100.00;98528.41;5149023;27;20190;-81
2022/09/26 01:29:35;;;;;;;17.87;5.33;;;;;;;8.18;100.00;98529.53;5135869;27;20242;-82
2022/09/26 01:35:07;;;;;;;12.03;4.90;;;;;;;8.13;100.00;98523.75;5111309;28;20195;-81
2022/09/26 01:37:45;;;;;;;54.97;6.87;;;;;;;7.93;100.00;98527.66;5110130;28;20228;-82
2022/09/26 01:40:21;;;;;;;10.47;4.90;;;;;;;7.95;100.00;98529.25;5110075;28;20191;-81
2022/09/26 01:43:04;;;;;;;17.13;4.70;;;;;;;8.10;100.00;98524.75;5112676;28;20224;-81
2022/09/26 01:45:42;;;;;;;36.60;5.93;;;;;;;8.06;100.00;98518.00;5106205;28;20182;-81
2022/09/26 01:48:17;;;;;;;25.90;5.53;;;;;;;7.89;100.00;98526.97;5104230;28;20298;-81
2022/09/26 01:50:50;;;;;;;21.73;4.20;;;;;;;7.93;100.00;98517.94;5137286;27;20222;-81
2022/09/26 01:53:24;;;;;;;43.63;5.47;;;;;;;7.63;100.00;98528.63;5151311;27;20185;-82
2022/09/26 01:55:56;;;;;;;14.23;3.93;;;;;;;7.82;100.00;98515.16;5145886;27;20186;-82
2022/09/26 01:58:29;;;;;;;11.13;3.83;;;;;;;7.83;100.00;98522.09;5148728;27;20235;-82
2022/09/26 02:01:01;;;;;;;9.13;4.20;;;;;;;7.74;100.00;98509.50;5148244;27;20190;-82
2022/09/26 02:03:36;;;;;;;30.20;5.23;;;;;;;7.72;100.00;98509.59;5149934;27;20204;-82
2022/09/26 02:06:10;;;;;;;13.17;3.87;;;;;;;7.80;100.00;98505.63;5144534;27;20213;-81
2022/09/26 02:08:42;;;;;;;19.57;4.63;;;;;;;7.67;100.00;98490.59;5149772;27;20198;-81
2022/09/26 02:11:16;;;;;;;24.30;4.67;;;;;;;7.70;100.00;98492.19;5145499;27;20182;-82
2022/09/26 02:13:50;;;;;;;24.27;4.70;;;;;;;7.55;100.00;98482.63;5148479;27;20246;-82
2022/09/26 02:16:25;;;;;;;21.00;4.37;;;;;;;7.52;100.00;98480.16;5147911;27;20215;-82
2022/09/26 02:18:59;;;;;;;15.27;4.50;;;;;;;7.41;100.00;98481.66;5149030;27;20209;-82
2022/09/26 02:21:27;;;;;;;23.63;3.83;;;;;;;7.46;100.00;98484.88;5151359;27;20224;-81
2022/09/26 02:23:56;;;;;;;22.23;4.60;;;;;;;7.31;100.00;98488.44;5142313;27;20220;-82
2022/09/26 02:26:24;;;;;;;31.80;4.23;;;;;;;7.46;100.00;98479.59;5145920;27;20238;-81
2022/09/26 02:28:53;;;;;;;15.63;4.33;;;;;;;7.50;100.00;98474.97;5151674;27;20190;-82
2022/09/26 02:31:26;;;;;;;48.90;5.87;;;;;;;7.52;100.00;98481.00;5153261;27;20304;-82
2022/09/26 02:33:57;;;;;;;23.07;4.13;;;;;;;7.62;100.00;98474.19;5148630;27;20194;-81
2022/09/26 02:36:25;;;;;;;82.30;7.10;;;;;;;7.54;100.00;98475.66;5148913;27;20185;-82
2022/09/26 02:38:54;;;;;;;54.43;5.93;;;;;;;7.50;100.00;98476.78;5153065;27;20255;-82
2022/09/26 02:41:29;;;;;;;16.63;3.97;;;;;;;7.63;100.00;98465.38;5144783;27;20246;-81
2022/09/26 02:44:21;;;;;;;22.57;4.00;;;;;;;7.68;100.00;98479.09;5146030;27;20193;-82
2022/09/26 02:47:17;;;;;;;39.63;5.00;;;;;;;7.74;100.00;98476.09;5149358;27;20288;-82
2022/09/26 02:50:20;;;;;;;16.63;3.20;;;;;;;7.66;100.00;98472.25;5144741;27;20189;-82
2022/09/26 02:52:59;;;;;;;29.00;3.60;;;;;;;7.63;100.00;98451.34;5147190;27;20238;-82
2022/09/26 02:55:39;;;;;;;25.87;3.87;;;;;;;7.47;100.00;98444.41;5147492;27;20197;-81
2022/09/26 02:58:18;;;;;;;6.17;3.10;;;;;;;7.53;100.00;98453.72;5151013;27;20208;-81
2022/09/26 03:00:59;;;;;;;4.43;2.67;;;;;;;7.56;100.00;98455.31;5148372;27;20224;-82
2022/09/26 03:03:33;;;;;;;9.47;3.00;;;;;;;7.66;100.00;98446.72;5153679;27;20196;-81
2022/09/26 03:06:09;;;;;;;15.20;3.40;;;;;;;7.47;100.00;98447.03;5155598;27;20255;-81
2022/09/26 03:08:43;;;;;;;14.23;3.07;;;;;;;7.43;100.00;98444.69;5151865;27;20200;-81
2022/09/26 03:11:15;;;;;;;11.10;3.10;;;;;;;7.52;100.00;98441.47;5144919;27;20190;-81
2022/09/26 03:13:46;;;;;;;8.33;3.47;;;;;;;7.62;100.00;98445.22;5151933;27;20186;-82
2022/09/26 03:16:15;;;;;;;26.83;3.63;;;;;;;7.68;100.00;98439.56;5144167;27;20655;-81
2022/09/26 03:18:53;;;;;;;10.93;3.40;;;;;;;7.77;100.00;98437.28;5148893;27;20238;-81
2022/09/26 03:21:24;;;;;;;17.63;3.87;;;;;;;7.71;100.00;98439.34;5151894;27;20250;-81
2022/09/26 03:23:52;;;;;;;5.70;2.87;;;;;;;7.76;100.00;98433.81;5158985;27;20227;-82
2022/09/26 03:26:23;;;;;;;36.30;5.10;;;;;;;7.76;100.00;98436.44;5151577;27;20194;-81
2022/09/26 03:28:51;;;;;;;15.90;3.60;;;;;;;7.79;100.00;98425.69;5156196;27;20189;-81
2022/09/26 03:31:21;;;;;;;14.33;3.70;;;;;;;7.80;100.00;98432.66;5158679;27;20197;-81
2022/09/26 03:33:49;;;;;;;9.27;3.47;;;;;;;7.74;100.00;98425.16;5150943;27;20186;-81
2022/09/26 03:36:18;;;;;;;25.17;5.00;;;;;;;7.84;100.00;98420.13;5155871;27;20190;-81
2022/09/26 03:38:48;;;;;;;28.53;4.10;;;;;;;7.87;100.00;98414.66;5153529;27;20240;-82
2022/09/26 03:41:17;;;;;;;34.23;4.40;;;;;;;7.87;100.00;98412.88;5150192;27;20322;-81
2022/09/26 03:43:45;;;;;;;26.23;4.77;;;;;;;7.86;100.00;98411.19;5146802;27;20210;-81
2022/09/26 03:46:14;;;;;;;69.27;6.83;;;;;;;7.81;100.00;98410.63;5153619;27;20241;-81
2022/09/26 03:48:43;;;;;;;66.37;7.20;;;;;;;7.87;100.00;98407.59;5148244;27;20280;-81
2022/09/26 03:51:13;;;;;;;46.30;5.87;;;;;;;7.98;100.00;98412.16;5148507;27;20213;-81
2022/09/26 03:53:44;;;;;;;38.03;5.83;;;;;;;7.91;100.00;98406.47;5146337;27;20262;-81
2022/09/26 03:56:15;;;;;;;188.37;20.27;;;;;;;7.74;100.00;98410.19;5156305;27;20193;-81
2022/09/26 03:58:45;;;;;;;53.37;16.20;;;;;;;7.91;100.00;98410.88;5151327;27;20228;-81
2022/09/26 04:01:16;;;;;;;62.83;21.87;;;;;;;7.99;100.00;98412.06;5050116;28;20201;-82
2022/09/26 04:03:46;;;;;;;89.13;16.03;;;;;;;7.88;100.00;98397.91;5050657;28;20189;-82
2022/09/26 04:06:19;;;;;;;42.90;7.40;;;;;;;8.01;100.00;98383.81;5046170;28;20229;-81
2022/09/26 04:08:50;;;;;;;37.53;7.20;;;;;;;8.08;100.00;98373.69;5053977;28;20197;-81
2022/09/26 04:11:23;;;;;;;25.23;6.90;;;;;;;8.03;100.00;98381.06;5051409;28;20195;-81
2022/09/26 04:13:52;;;;;;;52.43;10.77;;;;;;;8.06;100.00;98377.38;5048948;28;20219;-82
2022/09/26 04:16:22;;;;;;;51.23;9.77;;;;;;;8.12;100.00;98379.63;5045851;28;20197;-81
2022/09/26 04:18:56;;;;;;;31.33;9.67;;;;;;;8.14;100.00;98364.53;5075341;27;20189;-81
2022/09/26 04:21:25;;;;;;;33.43;8.97;;;;;;;8.14;100.00;98360.09;5157509;27;20192;-82
2022/09/26 04:23:55;;;;;;;36.13;8.20;;;;;;;8.26;100.00;98350.53;5157656;27;20193;-81
2022/09/26 04:26:25;;;;;;;66.53;9.33;;;;;;;8.16;100.00;98352.09;5150198;27;20252;-81
2022/09/26 04:28:56;;;;;;;30.90;8.83;;;;;;;8.20;100.00;98350.91;5153668;27;20189;-81
2022/09/26 04:31:26;;;;;;;37.30;10.47;;;;;;;8.32;100.00;98347.47;5151772;27;20392;-81
2022/09/26 04:33:55;;;;;;;49.07;9.37;;;;;;;8.27;100.00;98345.13;5150963;27;20580;-81
2022/09/26 04:36:23;;;;;;;67.37;10.47;;;;;;;8.26;100.00;98348.72;5146806;27;20197;-81
2022/09/26 04:38:51;;;;;;;49.70;11.67;;;;;;;8.15;100.00;98343.34;5150067;27;20186;-82
2022/09/26 04:41:21;;;;;;;41.83;11.37;;;;;;;8.24;100.00;98340.06;5148913;27;20713;-82
2022/09/26 04:43:54;;;;;;;46.13;13.03;;;;;;;8.30;100.00;98344.94;5152258;27;20242;-81
2022/09/26 04:46:24;;;;;;;67.47;13.27;;;;;;;8.31;100.00;98346.63;5154375;27;20189;-81
2022/09/26 04:49:00;;;;;;;27.90;13.73;;;;;;;8.37;100.00;98340.09;5148831;27;20189;-81
2022/09/26 04:51:30;;;;;;;53.13;16.90;;;;;;;8.42;100.00;98339.81;5146164;27;20209;-81
2022/09/26 04:53:59;;;;;;;74.50;13.43;;;;;;;8.31;100.00;98335.25;5155154;27;20193;-82
2022/09/26 04:56:29;;;;;;;71.87;14.27;;;;;;;8.41;100.00;98336.34;5152551;27;20197;-81
2022/09/26 04:58:59;;;;;;;28.80;12.30;;;;;;;8.44;100.00;98330.00;5152190;27;20214;-81
2022/09/26 05:01:28;;;;;;;22.47;11.73;;;;;;;8.56;100.00;98326.50;5152943;27;20217;-82
2022/09/26 05:03:57;;;;;;;24.40;12.47;;;;;;;8.64;100.00;98325.97;5149371;27;20201;-81
2022/09/26 05:06:25;;;;;;;30.37;13.83;;;;;;;8.57;100.00;98325.53;5145615;27;20230;-81
2022/09/26 05:08:54;;;;;;;27.10;14.37;;;;;;;8.57;100.00;98315.84;5156913;27;20190;-81
2022/09/26 05:11:23;;;;;;;21.77;15.57;;;;;;;8.75;100.00;98326.06;5150283;27;20193;-81
2022/09/26 05:13:51;;;;;;;48.30;16.27;;;;;;;8.49;100.00;98320.81;5158187;27;20198;-81
2022/09/26 05:16:22;;;;;;;32.83;18.93;;;;;;;8.72;100.00;98315.72;5151667;27;20189;-82
2022/09/26 05:18:51;;;;;;;22.90;14.83;;;;;;;8.87;100.00;98318.13;5144303;27;20193;-82
2022/09/26 05:21:20;;;;;;;37.57;17.53;;;;;;;8.76;100.00;98311.91;5157583;27;20297;-82
2022/09/26 05:26:41;;;;;;;24.73;16.57;;;;;;;8.76;100.00;98296.91;5156870;27;20197;-82
2022/09/26 05:29:10;;;;;;;39.73;19.23;;;;;;;8.80;100.00;98308.13;5151876;27;20193;-81
2022/09/26 05:31:42;;;;;;;25.23;18.57;;;;;;;8.88;100.00;98309.28;5099410;27;20190;-81
2022/09/26 05:34:14;;;;;;;39.63;21.63;;;;;;;8.84;100.00;98304.31;5147383;27;20197;-81
2022/09/26 05:36:48;;;;;;;33.37;20.77;;;;;;;8.85;100.00;98292.78;5150052;27;20201;-82
2022/09/26 05:41:59;;;;;;;35.43;19.20;;;;;;;8.92;100.00;98303.75;5110145;27;20197;-81
2022/09/26 05:44:29;;;;;;;60.97;31.30;;;;;;;8.87;100.00;98299.63;5151953;27;20190;-82
2022/09/26 05:47:00;;;;;;;35.30;20.23;;;;;;;8.87;100.00;98296.16;5143290;27;20573;-81
2022/09/26 05:49:28;;;;;;;31.53;18.80;;;;;;;8.94;100.00;98296.56;5149317;27;20189;-82
2022/09/26 05:51:57;;;;;;;30.47;19.07;;;;;;;8.96;100.00;98292.84;5145313;27;20234;-81
2022/09/26 05:54:25;;;;;;;26.87;19.17;;;;;;;8.82;100.00;98293.84;5151441;27;20209;-82
2022/09/26 05:56:54;;;;;;;27.57;19.37;;;;;;;8.87;100.00;98289.06;5147011;27;20197;-81
2022/09/26 05:59:24;;;;;;;26.53;19.43;;;;;;;8.95;100.00;98288.53;5147510;27;20225;-81
2022/09/26 06:01:53;;;;;;;26.30;18.27;;;;;;;8.99;100.00;98300.59;5147609;27;20294;-82
2022/09/26 06:04:23;;;;;;;28.23;18.83;;;;;;;9.02;100.00;98294.22;5148114;27;20271;-82
2022/09/26 06:06:51;;;;;;;25.20;19.03;;;;;;;8.88;100.00;98293.44;5147990;27;20217;-81
2022/09/26 06:09:19;;;;;;;27.57;18.97;;;;;;;8.88;100.00;98282.03;5142052;27;20227;-81
2022/09/26 06:11:48;;;;;;;27.60;20.10;;;;;;;9.06;100.00;98287.75;5147413;27;20197;-81
2022/09/26 06:14:17;;;;;;;25.80;19.63;;;;;;;9.07;100.00;98281.53;5148445;27;20190;-81
2022/09/26 06:16:45;;;;;;;29.03;19.47;;;;;;;9.16;100.00;98286.97;5152605;27;20196;-81
2022/09/26 06:19:14;;;;;;;29.63;21.90;;;;;;;9.11;100.00;98288.28;5152851;27;20205;-81
2022/09/26 06:21:50;;;;;;;28.17;20.37;;;;;;;9.07;100.00;98279.75;5151502;27;20223;-81
2022/09/26 06:24:21;;;;;;;30.73;20.53;;;;;;;9.03;100.00;98277.44;5150643;27;20197;-81
2022/09/26 06:26:49;;;;;;;28.83;21.43;;;;;;;8.98;100.00;98269.00;5152740;27;20186;-80
2022/09/26 06:29:18;;;;;;;27.60;20.53;;;;;;;9.08;100.00;98275.31;5152225;27;20204;-81
2022/09/26 06:31:47;;;;;;;27.57;22.00;;;;;;;9.00;100.00;98270.56;5148729;27;20266;-81
2022/09/26 06:34:15;;;;;;;28.23;20.83;;;;;;;9.21;100.00;98269.97;5154374;27;20185;-82
2022/09/26 06:36:45;;;;;;;26.80;20.83;;;;;;;9.18;100.00;98269.25;5151835;27;20193;-82
2022/09/26 06:39:16;;;;;;;27.70;20.30;;;;;;;9.12;100.00;98263.56;5143670;27;20656;-81
2022/09/26 06:41:44;;;;;;;28.20;21.87;;;;;;;9.13;100.00;98257.31;5145511;27;20242;-82
2022/09/26 06:44:13;;;;;;;28.60;20.83;;;;;;;9.23;100.00;98255.69;5150563;27;20334;-81
2022/09/26 06:46:42;;;;;;;28.50;21.60;;;;;;;9.38;100.00;98265.16;5148970;27;20186;-81
2022/09/26 06:49:10;;;;;;;30.97;21.77;;;;;;;9.36;100.00;98252.97;5149165;27;20293;-81
2022/09/26 06:51:39;;;;;;;29.13;22.30;;;;;;;9.48;100.00;98251.25;5151644;27;20193;-81
2022/09/26 06:54:09;;;;;;;29.40;21.03;;;;;;;9.51;100.00;98258.94;5154746;27;20190;-81
2022/09/26 06:56:39;;;;;;;27.80;19.57;;;;;;;9.58;100.00;98252.25;5147703;27;20201;-81
2022/09/26 06:59:07;;;;;;;29.87;21.30;;;;;;;9.52;100.00;98250.06;5151682;27;20186;-81
2022/09/26 07:01:35;;;;;;;28.10;21.80;;;;;;;9.56;100.00;98248.91;5145199;27;20220;-82
2022/09/26 07:04:04;;;;;;;30.23;21.50;;;;;;;9.66;100.00;98247.25;5147032;27;20202;-81
2022/09/26 07:06:33;;;;;;;28.47;21.47;;;;;;;9.72;100.00;98238.84;5148545;27;20221;-82
2022/09/26 07:09:02;;;;;;;33.07;21.90;;;;;;;9.69;100.00;98239.91;5151935;27;20674;-81
2022/09/26 07:11:44;;;;;;;25.97;21.73;;;;;;;9.67;100.00;98236.56;5146736;27;20192;-82
2022/09/26 07:14:33;;;;;;;26.53;20.20;;;;;;;9.85;100.00;98241.41;5155330;27;20242;-81
2022/09/26 07:17:01;;;;;;;29.07;20.87;;;;;;;10.02;100.00;98238.31;5150597;27;20197;-81
2022/09/26 07:19:30;;;;;;;25.00;19.93;;;;;;;10.04;100.00;98231.97;5142652;27;20245;-81
2022/09/26 07:21:58;;;;;;;26.90;20.77;;;;;;;10.08;100.00;98223.78;5144819;27;20363;-81
2022/09/26 07:24:26;;;;;;;23.10;20.17;;;;;;;10.25;100.00;98228.66;5145373;27;20201;-81
2022/09/26 07:26:56;;;;;;;24.63;19.63;;;;;;;10.27;100.00;98230.22;5146104;27;20204;-81
2022/09/26 07:29:25;;;;;;;28.77;20.43;;;;;;;10.44;100.00;98228.06;5150511;27;20197;-81
2022/09/26 07:31:54;;;;;;;26.17;20.50;;;;;;;10.20;100.00;98218.38;5140034;27;20197;-82
2022/09/26 07:34:23;;;;;;;23.70;18.03;;;;;;;10.38;100.00;98213.50;5142791;27;20202;-81
2022/09/26 07:36:53;;;;;;;22.53;19.37;;;;;;;10.32;100.00;98212.16;5147984;27;20319;-81
2022/09/26 07:39:21;;;;;;;22.30;18.40;;;;;;;10.34;100.00;98209.41;5152311;27;20197;-82
2022/09/26 07:41:50;;;;;;;24.63;18.77;;;;;;;10.31;100.00;98206.97;5149781;27;20241;-81
2022/09/26 07:44:20;;;;;;;19.83;17.50;;;;;;;10.54;100.00;98197.25;5150149;27;20181;-81
2022/09/26 07:50:13;;;;;;;22.70;17.20;;;;;;;10.51;100.00;98184.22;5154560;27;20197;-82
2022/09/26 07:52:43;;;;;;;16.67;14.87;;;;;;;10.46;100.00;98168.72;5147744;27;20201;-81
2022/09/26 07:55:15;;;;;;;20.27;14.87;;;;;;;10.65;100.00;98170.75;5151053;27;20232;-82
2022/09/26 07:57:47;;;;;;;17.13;14.20;;;;;;;10.76;100.00;98176.03;5149130;27;20201;-82
2022/09/26 08:00:20;;;;;;;18.67;14.77;;;;;;;10.80;100.00;98168.66;5088611;28;20245;-82
2022/09/26 08:02:51;;;;;;;19.17;14.40;;;;;;;10.93;100.00;98169.38;5087596;28;20253;-82
2022/09/26 08:05:20;;;;;;;19.50;14.40;;;;;;;11.02;100.00;98151.88;5087977;28;20223;-81
2022/09/26 08:07:51;;;;;;;21.07;15.10;;;;;;;10.96;100.00;98155.03;5088046;28;20199;-82
2022/09/26 08:10:22;;;;;;;17.10;13.63;;;;;;;10.83;100.00;98158.69;5086172;28;20203;-82
2022/09/26 08:12:50;;;;;;;23.87;15.87;;;;;;;11.13;100.00;98144.72;5090221;28;20265;-83
2022/09/26 08:15:21;;;;;;;20.20;15.40;;;;;;;11.30;100.00;98142.50;5087498;28;20245;-81
2022/09/26 08:17:50;;;;;;;24.03;15.13;;;;;;;11.37;100.00;98141.00;5065858;28;20344;-82
2022/09/26 08:20:19;;;;;;;17.30;12.47;;;;;;;11.66;100.00;98136.72;5109522;28;20252;-82
2022/09/26 08:22:48;;;;;;;15.27;11.40;;;;;;;11.65;100.00;98126.25;5103876;28;20258;-82
2022/09/26 08:25:16;;;;;;;15.07;11.27;;;;;;;11.82;100.00;98122.19;5113005;28;20251;-82
2022/09/26 08:27:45;;;;;;;16.70;10.43;;;;;;;12.17;100.00;98117.34;5073604;28;20187;-82
2022/09/26 08:30:13;;;;;;;13.27;9.47;;;;;;;12.08;100.00;98114.66;5092563;28;20736;-82
2022/09/26 08:32:43;;;;;;;14.23;9.77;;;;;;;12.43;100.00;98111.53;5085045;28;20227;-82
2022/09/26 08:35:13;;;;;;;12.43;8.67;;;;;;;12.54;100.00;98104.31;5088561;28;20187;-82
2022/09/26 08:37:41;;;;;;;11.27;8.17;;;;;;;12.65;100.00;98106.03;5106620;28;20199;-81
2022/09/26 08:40:11;;;;;;;10.87;7.43;;;;;;;12.80;100.00;98094.00;5112406;28;20183;-82
2022/09/26 08:42:52;;;;;;;10.03;6.93;;;;;;;12.52;100.00;98081.50;5110813;28;20211;-82
2022/09/26 08:48:41;;;;;;;12.83;9.73;;;;;;;13.11;100.00;98062.81;5135681;27;20205;-82
2022/09/26 08:51:21;;;;;;;13.70;9.30;;;;;;;13.13;100.00;98055.56;5152783;27;20648;-82
2022/09/26 08:54:02;;;;;;;13.90;10.10;;;;;;;13.18;100.00;98047.13;5155204;27;20193;-82
2022/09/26 08:56:35;;;;;;;13.87;10.00;;;;;;;13.04;100.00;98048.44;5150497;27;20197;-82
2022/09/26 08:59:12;;;;;;;12.53;9.17;;;;;;;13.08;100.00;98046.31;5155525;27;20253;-82
2022/09/26 09:01:45;;;;;;;11.40;8.60;;;;;;;13.15;100.00;98044.78;5151310;27;20663;-82
2022/09/26 09:04:20;;;;;;;10.77;8.50;;;;;;;13.29;100.00;98039.03;5150150;27;20196;-82
2022/09/26 09:06:58;;;;;;;10.60;8.53;;;;;;;13.11;100.00;98027.41;5113291;28;20218;-82
2022/09/26 09:09:27;;;;;;;10.87;8.50;;;;;;;13.34;100.00;98030.66;5110698;28;20641;-82
2022/09/26 09:12:08;;;;;;;11.23;7.77;;;;;;;13.36;100.00;98026.00;5110056;28;20274;-82
2022/09/26 09:14:53;;;;;;;14.53;8.20;;;;;;;13.32;100.00;98032.63;5013788;28;20314;-82
2022/09/26 09:17:55;;;;;;;15.63;9.83;;;;;;;13.44;100.00;98024.31;5013611;28;20298;-82
2022/09/26 09:20:38;;;;;;;11.30;9.37;;;;;;;13.41;100.00;98021.09;5009186;28;20194;-83
2022/09/26 09:23:22;;;;;;;12.07;9.17;;;;;;;13.49;100.00;98015.88;5005528;28;20218;-82
2022/09/26 09:26:02;;;;;;;13.67;9.20;;;;;;;13.42;100.00;98015.66;5049967;28;20694;-82
2022/09/26 09:29:08;;;;;;;9.93;7.87;;;;;;;13.55;100.00;98012.66;5056183;28;20209;-82
2022/09/26 09:31:40;;;;;;;6.63;4.27;;;;;;;13.34;100.00;98007.53;5050540;27;20201;-82
2022/09/26 09:34:15;;;;;;;2.13;1.33;;;;;;;13.43;100.00;97996.03;5151806;27;20189;-83
2022/09/26 09:36:48;;;;;;;1.33;0.90;;;;;;;13.26;100.00;97990.63;5148797;27;20238;-82
2022/09/26 09:39:26;;;;;;;5.93;1.47;;;;;;;13.38;100.00;97985.00;5147824;27;20293;-82
2022/09/26 09:42:00;;;;;;;2.87;1.00;;;;;;;13.24;100.00;97982.81;5147387;27;20193;-81
2022/09/26 09:44:39;;;;;;;3.63;1.03;;;;;;;13.62;100.00;97973.00;5153737;27;20246;-81
2022/09/26 09:47:15;;;;;;;3.00;1.10;;;;;;;13.60;100.00;97966.97;5153791;27;20208;-82
2022/09/26 09:49:44;;;;;;;3.53;1.17;;;;;;;13.83;100.00;97965.63;5154149;27;20246;-81
2022/09/26 09:52:38;;;;;;;2.27;1.00;;;;;;;14.24;100.00;97958.94;5150345;27;20219;-81
2022/09/26 09:55:30;;;;;;;1.67;0.60;;;;;;;14.27;100.00;97957.78;5150418;27;20605;-81
2022/09/26 09:58:18;;;;;;;5.47;3.90;;;;;;;14.70;100.00;97940.25;5155880;27;20254;-81
2022/09/26 10:00:59;;;;;;;6.07;3.63;;;;;;;14.97;100.00;97939.28;5147049;27;20263;-82
2022/09/26 10:03:36;;;;;;;10.17;4.40;;;;;;;14.97;100.00;97937.47;5147522;27;20313;-81
2022/09/26 10:06:08;;;;;;;5.07;2.10;;;;;;;14.27;100.00;97936.47;5148739;27;20237;-81
2022/09/26 10:09:02;;;;;;;2.90;1.60;;;;;;;14.32;100.00;97929.72;5155779;27;20284;-81
2022/09/26 10:11:50;;;;;;;2.83;0.83;;;;;;;14.18;100.00;97927.56;5155753;27;20189;-81
2022/09/26 10:14:29;;;;;;;2.50;0.90;;;;;;;14.27;100.00;97920.50;5149484;27;20198;-81
2022/09/26 10:17:19;;;;;;;1.57;0.80;;;;;;;14.09;100.00;97935.63;5146211;27;20277;-82
2022/09/26 10:19:50;;;;;;;2.93;0.93;;;;;;;14.24;100.00;97912.81;5146485;27;20225;-82
2022/09/26 10:22:24;;;;;;;1.77;0.87;;;;;;;14.12;100.00;97920.19;5149798;27;20221;-81
2022/09/26 10:25:03;;;;;;;3.83;1.20;;;;;;;14.61;100.00;97934.00;5149467;27;20225;-81
2022/09/26 10:27:37;;;;;;;2.53;0.97;;;;;;;14.36;100.00;97914.25;5150166;27;20238;-81
2022/09/26 10:30:24;;;;;;;2.50;0.90;;;;;;;14.53;100.00;97924.09;5145829;27;20237;-81
2022/09/26 10:32:57;;;;;;;3.67;1.10;;;;;;;14.17;100.00;97923.22;5149584;27;20193;-81
2022/09/26 10:35:28;;;;;;;1.97;1.20;;;;;;;14.02;100.00;97911.44;5146964;27;20236;-80
2022/09/26 10:38:02;;;;;;;3.43;0.90;;;;;;;14.09;100.00;97920.50;5150740;27;20189;-80
2022/09/26 10:40:46;;;;;;;2.00;0.80;;;;;;;13.88;100.00;97910.09;5155037;27;20205;-81
2022/09/26 10:43:29;;;;;;;1.73;1.07;;;;;;;14.08;100.00;97912.66;5150915;27;20269;-81
2022/09/26 10:46:09;;;;;;;3.93;1.03;;;;;;;13.93;100.00;97923.81;5153288;27;20193;-81
2022/09/26 10:48:47;;;;;;;3.63;1.03;;;;;;;13.98;100.00;97918.03;5148749;27;20193;-81
2022/09/26 10:51:27;;;;;;;3.13;1.00;;;;;;;13.87;100.00;97927.06;5148056;27;20250;-81
2022/09/26 10:54:04;;;;;;;1.63;0.80;;;;;;;13.77;100.00;97926.28;5150759;27;20288;-80
2022/09/26 10:56:44;;;;;;;3.83;1.10;;;;;;;13.91;100.00;97904.50;5147995;27;20288;-80
2022/09/26 10:59:16;;;;;;;4.90;1.10;;;;;;;14.03;100.00;97919.28;5147599;27;20185;-81
2022/09/26 11:01:50;;;;;;;1.90;0.93;;;;;;;14.20;100.00;97904.31;5151702;27;20192;-81
2022/09/26 11:07:08;;;;;;;2.37;0.80;;;;;;;14.29;100.00;97903.41;5131506;28;20452;-81
2022/09/26 11:09:38;;;;;;;2.87;0.90;;;;;;;14.13;100.00;97918.38;5135099;27;20257;-82
2022/09/26 11:12:26;;;;;;;2.77;1.00;;;;;;;14.11;100.00;97893.72;5133733;28;20203;-81
2022/09/26 11:14:58;;;;;;;3.07;0.90;;;;;;;13.97;100.00;97911.88;5090595;28;20235;-81
2022/09/26 11:17:46;;;;;;;4.20;1.10;;;;;;;13.68;100.00;97898.75;5086968;28;20203;-81
2022/09/26 11:20:35;;;;;;;3.50;1.33;;;;;;;13.89;100.00;97903.78;5088209;28;20191;-82
2022/09/26 11:23:17;;;;;;;4.27;0.90;;;;;;;13.81;100.00;97903.72;5082157;28;20254;-81
2022/09/26 11:25:58;;;;;;;2.73;0.90;;;;;;;14.01;100.00;97891.13;5090725;28;20187;-82
2022/09/26 11:28:36;;;;;;;0.93;0.80;;;;;;;14.22;100.00;97880.19;5089131;28;20203;-82
2022/09/26 11:31:17;;;;;;;3.07;0.90;;;;;;;14.15;100.00;97889.75;5086770;28;20274;-80
2022/09/26 11:33:46;;;;;;;3.47;1.10;;;;;;;14.04;100.00;97880.16;5111352;28;20194;-82
2022/09/26 11:36:45;;;;;;;3.53;1.03;;;;;;;13.94;100.00;97882.91;5133560;28;20198;-81
2022/09/26 11:39:32;;;;;;;2.87;1.00;;;;;;;14.24;100.00;97875.53;5132952;27;20194;-82
2022/09/26 11:42:15;;;;;;;3.43;1.10;;;;;;;14.30;100.00;97880.25;5131952;27;20194;-82
2022/09/26 11:44:57;;;;;;;4.70;1.10;;;;;;;13.94;100.00;97866.94;5132552;27;20221;-82
2022/09/26 11:47:55;;;;;;;2.20;1.00;;;;;;;13.99;100.00;97864.66;5130244;27;20229;-81
2022/09/26 11:50:38;;;;;;;4.37;1.00;;;;;;;14.04;100.00;97869.53;5125048;27;20198;-80
2022/09/26 11:53:29;;;;;;;4.00;2.37;;;;;;;14.13;100.00;97868.63;5134921;27;20350;-82
2022/09/26 11:56:20;;;;;;;5.83;3.30;;;;;;;13.89;100.00;97868.34;5133878;27;20194;-82
2022/09/26 11:59:01;;;;;;;3.30;2.57;;;;;;;13.77;100.00;97873.06;5134395;27;20202;-81
2022/09/26 12:01:47;;;;;;;4.63;1.80;;;;;;;13.64;100.00;97868.13;5135208;27;20187;-81
2022/09/26 12:04:54;;;;;;;38.33;32.17;;;;;;;13.58;100.00;97873.19;5136868;27;20210;-82
2022/09/26 12:07:32;;;;;;;7.73;4.57;;;;;;;13.47;100.00;97855.59;5113998;28;20272;-81
2022/09/26 12:10:18;;;;;;;3.17;2.57;;;;;;;13.31;100.00;97850.06;5116922;27;20239;-81
2022/09/26 12:13:00;;;;;;;2.90;1.80;;;;;;;13.27;100.00;97857.53;5114930;28;20187;-81